createdAt,value
2022-11-24T00:01:17.835Z,0.85
2022-11-24T00:03:47.125Z,2.17
2022-11-24T00:06:16.283Z,1.10
2022-11-24T00:08:45.783Z,0.90
2022-11-24T00:11:16.552Z,1.38
2022-11-24T00:13:44.267Z,0.80
2022-11-24T00:16:18.695Z,1.17
2022-11-24T00:18:48.592Z,1.13
2022-11-24T00:21:18.291Z,0.70
2022-11-24T00:23:46.129Z,0.77
2022-11-24T00:26:19.983Z,0.85
2022-11-24T00:28:49.747Z,0.85
2022-11-24T00:31:22.524Z,1.13
2022-11-24T00:33:52.502Z,0.80
2022-11-24T00:36:21.787Z,0.70
2022-11-24T00:38:54.327Z,0.80
2022-11-24T00:41:21.498Z,0.95
2022-11-24T00:43:48.458Z,0.85
2022-11-24T00:46:15.808Z,0.75
2022-11-24T00:48:42.944Z,1.00
2022-11-24T00:51:13.869Z,0.80
2022-11-24T00:53:40.886Z,1.33
2022-11-24T00:56:09.369Z,0.75
2022-11-24T00:58:36.774Z,1.05
2022-11-24T01:01:12.212Z,0.80
2022-11-24T01:03:39.920Z,0.80
2022-11-24T01:06:16.592Z,1.15
2022-11-24T01:08:44.598Z,1.00
2022-11-24T01:11:50.802Z,1.48
2022-11-24T01:14:17.915Z,1.15
2022-11-24T01:16:44.871Z,0.80
2022-11-24T01:19:11.849Z,1.00
2022-11-24T01:21:38.726Z,0.82
2022-11-24T01:24:06.159Z,0.88
2022-11-24T01:26:33.269Z,1.52
2022-11-24T01:29:00.137Z,1.40
2022-11-24T01:31:28.205Z,1.02
2022-11-24T01:33:55.444Z,0.75
2022-11-24T01:36:23.299Z,1.05
2022-11-24T01:38:50.874Z,1.00
2022-11-24T01:41:24.415Z,0.93
2022-11-24T01:43:54.747Z,1.13
2022-11-24T01:46:54.798Z,0.80
2022-11-24T01:49:41.287Z,0.90
2022-11-24T01:52:32.103Z,1.08
2022-11-24T01:55:07.268Z,0.88
2022-11-24T01:57:45.262Z,1.08
2022-11-24T02:00:14.953Z,1.30
2022-11-24T02:02:44.391Z,0.80
2022-11-24T02:06:00.577Z,0.93
2022-11-24T02:08:39.734Z,1.00
2022-11-24T02:11:07.112Z,0.75
2022-11-24T02:13:38.539Z,1.55
2022-11-24T02:16:10.304Z,0.80
2022-11-24T02:18:39.988Z,0.70
2022-11-24T02:21:08.361Z,0.80
2022-11-24T02:24:01.644Z,1.20
2022-11-24T02:26:43.310Z,0.90
2022-11-24T02:29:12.473Z,1.23
2022-11-24T02:31:47.511Z,0.90
2022-11-24T02:34:14.510Z,1.42
2022-11-24T02:36:41.500Z,1.23
2022-11-24T02:39:13.392Z,1.15
2022-11-24T02:41:52.103Z,1.90
2022-11-24T02:44:23.447Z,1.30
2022-11-24T02:46:50.291Z,1.00
2022-11-24T02:49:17.292Z,1.42
2022-11-24T02:51:44.153Z,0.90
2022-11-24T02:54:11.009Z,1.42
2022-11-24T02:56:37.874Z,1.00
2022-11-24T02:59:04.784Z,1.30
2022-11-24T03:01:31.823Z,1.05
2022-11-24T03:03:58.716Z,1.35
2022-11-24T03:06:25.582Z,0.85
2022-11-24T03:08:52.549Z,0.95
2022-11-24T03:11:19.445Z,1.20
2022-11-24T03:13:46.292Z,0.93
2022-11-24T03:16:13.314Z,0.77
2022-11-24T03:18:40.185Z,0.90
2022-11-24T03:21:07.391Z,1.17
2022-11-24T03:23:34.213Z,1.10
2022-11-24T03:26:17.784Z,1.13
2022-11-24T03:28:45.473Z,1.20
2022-11-24T03:31:13.386Z,0.88
2022-11-24T03:33:40.417Z,1.38
2022-11-24T03:36:08.525Z,1.17
2022-11-24T03:38:35.390Z,0.98
2022-11-24T03:41:02.418Z,1.00
2022-11-24T03:43:30.073Z,0.93
2022-11-24T03:45:57.038Z,1.27
2022-11-24T03:48:24.156Z,1.45
2022-11-24T03:51:00.909Z,1.20
2022-11-24T03:53:31.024Z,1.38
2022-11-24T03:55:58.209Z,0.85
2022-11-24T03:58:25.644Z,1.10
2022-11-24T04:00:54.156Z,0.90
2022-11-24T04:03:21.707Z,1.00
2022-11-24T04:05:48.954Z,0.73
2022-11-24T04:08:17.122Z,1.08
2022-11-24T04:10:44.315Z,1.15
2022-11-24T04:13:17.643Z,1.08
2022-11-24T04:15:45.025Z,0.80
2022-11-24T04:18:13.548Z,0.80
2022-11-24T04:20:42.245Z,1.30
2022-11-24T04:23:10.790Z,1.13
2022-11-24T04:25:38.129Z,1.55
2022-11-24T04:28:05.066Z,1.20
2022-11-24T04:30:32.487Z,1.30
2022-11-24T04:32:59.769Z,0.95
2022-11-24T04:35:26.706Z,1.00
2022-11-24T04:37:53.795Z,1.13
2022-11-24T04:40:21.020Z,0.90
2022-11-24T04:42:55.346Z,1.25
2022-11-24T04:45:24.158Z,1.10
2022-11-24T04:47:51.543Z,1.83
2022-11-24T04:50:19.102Z,1.30
2022-11-24T04:52:46.113Z,0.95
2022-11-24T04:55:13.583Z,1.20
2022-11-24T04:57:40.734Z,0.80
2022-11-24T05:00:09.170Z,0.95
2022-11-24T05:02:37.063Z,1.02
2022-11-24T05:05:05.533Z,1.33
2022-11-24T05:07:33.270Z,1.08
2022-11-24T05:10:19.179Z,1.10
2022-11-24T05:12:54.370Z,0.73
2022-11-24T05:15:23.180Z,1.63
2022-11-24T05:17:50.125Z,1.15
2022-11-24T05:20:18.283Z,1.13
2022-11-24T05:22:45.292Z,1.65
2022-11-24T05:25:13.553Z,1.15
2022-11-24T05:27:41.653Z,1.08
2022-11-24T05:30:09.695Z,0.88
2022-11-24T05:32:36.639Z,1.25
2022-11-24T05:35:04.639Z,0.68
2022-11-24T05:37:31.676Z,1.50
2022-11-24T05:39:58.757Z,0.98
2022-11-24T05:42:46.116Z,1.73
2022-11-24T05:45:18.734Z,1.45
2022-11-24T05:47:46.339Z,1.50
2022-11-24T05:50:16.060Z,1.15
2022-11-24T05:52:43.060Z,1.42
2022-11-24T05:55:11.880Z,0.90
2022-11-24T05:57:38.814Z,1.33
2022-11-24T06:00:08.222Z,1.40
2022-11-24T06:02:35.797Z,1.35
2022-11-24T06:05:02.804Z,1.27
2022-11-24T06:07:29.798Z,1.15
2022-11-24T06:09:56.818Z,1.55
2022-11-24T06:12:23.759Z,1.48
2022-11-24T06:14:50.708Z,1.48
2022-11-24T06:17:17.603Z,1.02
2022-11-24T06:19:47.861Z,1.25
2022-11-24T06:22:15.160Z,0.85
2022-11-24T06:24:42.076Z,1.90
2022-11-24T06:27:09.096Z,1.65
2022-11-24T06:29:35.919Z,1.85
2022-11-24T06:32:02.893Z,1.38
2022-11-24T06:34:29.982Z,1.10
2022-11-24T06:36:57.352Z,1.08
2022-11-24T06:39:24.228Z,1.10
2022-11-24T06:41:51.715Z,1.35
2022-11-24T06:44:19.502Z,1.25
2022-11-24T06:46:46.946Z,1.20
2022-11-24T06:49:14.068Z,1.05
2022-11-24T06:51:41.877Z,0.80
2022-11-24T06:54:17.747Z,1.63
2022-11-24T06:56:44.941Z,1.13
2022-11-24T06:59:18.995Z,1.60
2022-11-24T07:01:47.013Z,0.88
2022-11-24T07:04:14.931Z,1.50
2022-11-24T07:06:42.730Z,0.90
2022-11-24T07:09:11.808Z,2.38
2022-11-24T07:11:40.496Z,1.10
2022-11-24T07:14:07.779Z,2.05
2022-11-24T07:16:34.916Z,1.05
2022-11-24T07:19:02.101Z,0.73
2022-11-24T07:21:30.726Z,1.75
2022-11-24T07:23:58.489Z,2.17
2022-11-24T07:26:26.424Z,1.58
2022-11-24T07:28:53.590Z,3.10
2022-11-24T07:31:26.153Z,2.13
2022-11-24T07:33:55.493Z,3.97
2022-11-24T07:36:23.715Z,1.27
2022-11-24T07:38:51.542Z,2.83
2022-11-24T07:41:20.501Z,2.47
2022-11-24T07:43:48.590Z,1.63
2022-11-24T07:46:18.946Z,1.50
2022-11-24T07:48:46.796Z,2.42
2022-11-24T07:51:14.076Z,1.40
2022-11-24T07:53:41.050Z,1.63
2022-11-24T07:56:09.824Z,2.38
2022-11-24T07:58:37.868Z,3.13
2022-11-24T08:01:14.237Z,1.88
2022-11-24T08:03:42.539Z,1.67
2022-11-24T08:06:30.103Z,2.15
2022-11-24T08:08:58.447Z,2.90
2022-11-24T08:11:26.029Z,6.20
2022-11-24T08:13:53.138Z,1.95
2022-11-24T08:16:22.729Z,3.08
2022-11-24T08:18:54.933Z,1.40
2022-11-24T08:21:23.684Z,3.08
2022-11-24T08:23:55.406Z,3.78
2022-11-24T08:26:24.884Z,1.60
2022-11-24T08:28:57.206Z,2.45
2022-11-24T08:31:27.332Z,1.67
2022-11-24T08:33:56.030Z,2.58
2022-11-24T08:36:22.968Z,5.10
2022-11-24T08:38:56.688Z,3.08
2022-11-24T08:41:25.558Z,3.75
2022-11-24T08:43:56.350Z,3.70
2022-11-24T08:46:23.926Z,3.10
2022-11-24T08:48:54.409Z,3.92
2022-11-24T08:51:27.353Z,2.60
2022-11-24T08:53:56.915Z,4.75
2022-11-24T08:56:24.824Z,4.78
2022-11-24T08:58:53.090Z,6.25
2022-11-24T09:01:20.314Z,5.10
2022-11-24T09:03:51.196Z,8.43
2022-11-24T09:06:25.487Z,7.10
2022-11-24T09:08:55.436Z,6.22
2022-11-24T09:11:23.880Z,7.85
2022-11-24T09:13:57.121Z,4.28
2022-11-24T09:16:27.968Z,6.07
2022-11-24T09:19:03.527Z,11.40
2022-11-24T09:21:34.348Z,5.57
2022-11-24T09:24:01.655Z,7.25
2022-11-24T09:26:32.358Z,5.18
2022-11-24T09:29:01.767Z,4.32
2022-11-24T09:31:34.364Z,4.82
2022-11-24T09:34:03.682Z,4.57
2022-11-24T09:36:31.938Z,3.10
2022-11-24T09:38:59.188Z,4.45
2022-11-24T09:41:48.604Z,3.05
2022-11-24T09:44:42.858Z,7.75
2022-11-24T09:47:46.699Z,3.88
2022-11-24T09:50:32.860Z,4.15
2022-11-24T09:53:27.534Z,3.88
2022-11-24T09:55:59.834Z,4.25
2022-11-24T09:58:37.216Z,4.65
2022-11-24T10:01:26.493Z,5.20
2022-11-24T10:03:54.806Z,6.18
2022-11-24T10:06:37.645Z,4.82
2022-11-24T10:09:42.072Z,2.67
2022-11-24T10:12:48.439Z,5.30
2022-11-24T10:16:07.946Z,5.63
2022-11-24T10:19:13.214Z,3.92
2022-11-24T10:22:03.454Z,6.97
2022-11-24T10:25:04.708Z,5.18
2022-11-24T10:28:18.716Z,4.45
2022-11-24T10:30:45.829Z,3.05
2022-11-24T10:33:30.401Z,5.05
2022-11-24T10:36:17.030Z,5.07
2022-11-24T10:39:05.535Z,5.00
2022-11-24T10:42:05.802Z,3.08
2022-11-24T10:44:33.024Z,3.03
2022-11-24T10:47:00.410Z,5.28
2022-11-24T10:49:34.575Z,3.92
2022-11-24T10:52:08.579Z,3.97
2022-11-24T10:54:36.356Z,3.28
2022-11-24T10:57:04.015Z,2.72
2022-11-24T10:59:35.408Z,3.50
2022-11-24T11:02:34.991Z,3.60
2022-11-24T11:05:42.155Z,2.90
2022-11-24T11:08:21.742Z,3.78
2022-11-24T11:11:30.636Z,2.38
2022-11-24T11:14:13.001Z,2.78
2022-11-24T11:16:50.721Z,3.83
2022-11-24T11:20:01.589Z,3.50
2022-11-24T11:22:40.456Z,3.13
2022-11-24T11:25:10.324Z,4.07
2022-11-24T11:27:40.194Z,4.90
2022-11-24T11:36:12.032Z,4.80
2022-11-24T11:38:41.148Z,3.35
2022-11-24T11:41:24.941Z,4.65
2022-11-24T11:44:09.032Z,6.13
2022-11-24T11:46:36.599Z,5.82
2022-11-24T11:49:04.053Z,5.47
2022-11-24T11:52:01.859Z,10.52
2022-11-24T11:55:11.750Z,3.38
2022-11-24T11:58:00.267Z,4.38
2022-11-24T12:00:35.270Z,4.95
2022-11-24T12:04:02.503Z,2.42
2022-11-24T12:06:40.896Z,4.80
2022-11-24T12:09:38.343Z,6.07
2022-11-24T12:12:20.859Z,5.28
2022-11-24T12:15:19.948Z,4.65
2022-11-24T12:18:26.858Z,2.88
2022-11-24T12:21:22.891Z,3.67
2022-11-24T12:24:15.120Z,4.35
2022-11-24T12:27:43.627Z,2.05
2022-11-24T12:30:13.184Z,3.33
2022-11-24T12:33:08.737Z,5.35
2022-11-24T12:35:52.303Z,3.00
2022-11-24T12:38:44.443Z,4.60
2022-11-24T12:41:42.025Z,3.08
2022-11-24T12:44:44.381Z,3.53
2022-11-24T12:48:14.735Z,2.40
2022-11-24T12:50:45.980Z,2.85
2022-11-24T12:53:28.434Z,2.50
2022-11-24T12:56:06.822Z,2.65
2022-11-24T12:58:58.622Z,3.70
2022-11-24T13:01:47.492Z,3.10
2022-11-24T13:04:54.363Z,2.42
2022-11-24T13:07:50.076Z,3.80
2022-11-24T13:10:55.328Z,3.05
2022-11-24T13:13:48.854Z,5.13
2022-11-24T13:16:53.492Z,2.90
2022-11-24T13:19:23.777Z,5.78
2022-11-24T13:22:09.418Z,3.17
2022-11-24T13:24:40.642Z,5.07
2022-11-24T13:27:15.501Z,5.73
2022-11-24T13:29:44.915Z,4.90
2022-11-24T13:32:11.930Z,5.13
2022-11-24T13:34:45.713Z,3.90
2022-11-24T13:37:40.027Z,5.15
2022-11-24T13:40:13.357Z,5.28
2022-11-24T13:43:00.342Z,3.97
2022-11-24T13:45:40.171Z,10.82
2022-11-24T13:48:19.653Z,4.30
2022-11-24T13:50:58.418Z,6.63
2022-11-24T13:53:40.387Z,3.85
2022-11-24T13:56:13.522Z,5.00
2022-11-24T13:58:49.194Z,6.18
2022-11-24T14:01:30.912Z,3.38
2022-11-24T14:04:30.428Z,5.00
2022-11-24T14:07:09.442Z,2.92
2022-11-24T14:09:52.202Z,4.38
2022-11-24T14:12:25.358Z,3.53
2022-11-24T14:14:57.296Z,3.85
2022-11-24T14:17:28.048Z,3.67
2022-11-24T14:19:59.380Z,3.63
2022-11-24T14:22:41.955Z,2.85
2022-11-24T14:25:32.219Z,3.15
2022-11-24T14:28:00.954Z,3.13
2022-11-24T14:30:28.025Z,3.92
2022-11-24T14:33:01.584Z,3.03
2022-11-24T14:35:34.885Z,2.40
2022-11-24T14:38:04.564Z,4.80
2022-11-24T14:40:56.944Z,3.08
2022-11-24T14:43:31.288Z,4.35
2022-11-24T14:45:59.694Z,8.55
2022-11-24T14:51:21.787Z,5.43
2022-11-24T14:53:55.193Z,7.47
2022-11-24T14:56:38.799Z,6.13
2022-11-24T14:59:23.464Z,3.65
2022-11-24T15:01:50.595Z,2.75
2022-11-24T15:07:24.750Z,4.15
2022-11-24T15:10:03.812Z,3.15
2022-11-24T15:12:52.112Z,5.80
2022-11-24T15:15:26.405Z,8.52
2022-11-24T15:17:59.676Z,3.85
2022-11-24T15:20:44.184Z,4.10
2022-11-24T15:23:29.378Z,3.88
2022-11-24T15:26:03.884Z,2.80
2022-11-24T15:28:31.515Z,2.47
2022-11-24T15:31:09.811Z,5.22
2022-11-24T15:33:36.997Z,4.93
2022-11-24T15:36:04.341Z,4.38
2022-11-24T15:38:31.487Z,3.33
2022-11-24T15:41:01.282Z,4.13
2022-11-24T15:43:36.575Z,3.33
2022-11-24T15:46:05.448Z,2.83
2022-11-24T15:48:33.051Z,3.03
2022-11-24T15:51:03.710Z,2.97
2022-11-24T15:53:46.256Z,3.10
2022-11-24T15:56:41.915Z,4.22
2022-11-24T15:59:20.688Z,2.30
2022-11-24T16:01:49.990Z,2.83
2022-11-24T16:04:18.236Z,2.17
2022-11-24T16:06:45.234Z,3.88
2022-11-24T16:09:16.114Z,3.08
2022-11-24T16:11:45.905Z,2.30
2022-11-24T16:14:13.050Z,3.45
2022-11-24T16:16:40.787Z,2.53
2022-11-24T16:19:12.821Z,6.57
2022-11-24T16:21:39.861Z,7.00
2022-11-24T16:24:07.301Z,11.52
2022-11-24T16:26:34.250Z,13.85
2022-11-24T16:29:01.279Z,7.43
2022-11-24T16:31:28.361Z,6.68
2022-11-24T16:33:55.419Z,4.18
2022-11-24T16:36:22.524Z,4.72
2022-11-24T16:38:49.604Z,5.18
2022-11-24T16:41:16.826Z,7.35
2022-11-24T16:43:43.910Z,8.38
2022-11-24T16:46:21.997Z,3.70
2022-11-24T16:48:55.642Z,10.60
2022-11-24T16:51:24.460Z,5.30
2022-11-24T16:54:03.753Z,4.00
2022-11-24T16:56:31.464Z,4.70
2022-11-24T16:58:58.437Z,3.92
2022-11-24T17:01:26.250Z,4.28
2022-11-24T17:03:53.519Z,3.33
2022-11-24T17:06:20.707Z,4.88
2022-11-24T17:08:48.271Z,5.78
2022-11-24T17:11:19.185Z,3.33
2022-11-24T17:13:49.042Z,3.53
2022-11-24T17:16:20.115Z,3.72
2022-11-24T17:18:47.210Z,4.10
2022-11-24T17:21:17.910Z,3.40
2022-11-24T17:23:45.205Z,3.28
2022-11-24T17:26:15.173Z,3.25
2022-11-24T17:28:43.273Z,3.55
2022-11-24T17:31:35.788Z,2.95
2022-11-24T17:34:06.550Z,2.78
2022-11-24T17:36:35.444Z,3.10
2022-11-24T17:39:06.959Z,3.78
2022-11-24T17:41:34.539Z,3.40
2022-11-24T17:44:01.563Z,3.30
2022-11-24T17:46:30.082Z,2.63
2022-11-24T17:48:57.631Z,3.67
2022-11-24T17:51:26.786Z,2.05
2022-11-24T17:53:55.571Z,3.30
2022-11-24T17:56:25.785Z,1.65
2022-11-24T17:58:55.635Z,2.13
2022-11-24T18:01:23.341Z,3.00
2022-11-24T18:03:53.632Z,3.15
2022-11-24T18:06:21.057Z,1.45
2022-11-24T18:08:48.296Z,3.20
2022-11-24T18:11:31.381Z,2.75
2022-11-24T18:14:03.026Z,2.95
2022-11-24T18:16:35.032Z,1.95
2022-11-24T18:19:09.198Z,2.65
2022-11-24T18:21:42.191Z,3.63
2022-11-24T18:24:11.474Z,2.42
2022-11-24T18:26:42.713Z,2.47
2022-11-24T18:29:11.354Z,1.80
2022-11-24T18:31:39.342Z,3.92
2022-11-24T18:34:07.039Z,2.38
2022-11-24T18:36:35.183Z,2.13
2022-11-24T18:39:08.204Z,1.83
2022-11-24T18:41:35.906Z,2.40
2022-11-24T18:44:07.745Z,2.47
2022-11-24T18:46:35.095Z,2.33
2022-11-24T18:49:02.016Z,2.05
2022-11-24T18:51:30.059Z,1.60
2022-11-24T18:53:58.246Z,2.85
2022-11-24T18:56:26.680Z,2.25
2022-11-24T18:58:56.315Z,1.67
2022-11-24T19:01:29.022Z,1.90
2022-11-24T19:03:59.337Z,1.58
2022-11-24T19:06:35.164Z,1.50
2022-11-24T19:09:11.340Z,1.50
2022-11-24T19:11:41.537Z,3.65
2022-11-24T19:14:14.125Z,1.35
2022-11-24T19:16:41.981Z,1.65
2022-11-24T19:19:11.831Z,1.77
2022-11-24T19:21:40.773Z,1.55
2022-11-24T19:24:18.763Z,2.38
2022-11-24T19:26:45.841Z,1.98
2022-11-24T19:29:13.009Z,2.22
2022-11-24T19:31:40.052Z,1.58
2022-11-24T19:34:08.144Z,2.05
2022-11-24T19:36:35.493Z,1.80
2022-11-24T19:39:05.643Z,1.05
2022-11-24T19:41:33.618Z,2.28
2022-11-24T19:44:00.634Z,1.85
2022-11-24T19:46:29.740Z,1.85
2022-11-24T19:49:03.936Z,2.13
2022-11-24T19:51:34.366Z,2.10
2022-11-24T19:54:02.802Z,1.35
2022-11-24T19:56:34.290Z,1.85
2022-11-24T19:59:03.002Z,1.63
2022-11-24T20:01:39.584Z,1.85
2022-11-24T20:04:12.807Z,1.95
2022-11-24T20:06:45.402Z,1.15
2022-11-24T20:09:15.962Z,2.30
2022-11-24T20:11:43.115Z,1.30
2022-11-24T20:14:16.561Z,1.48
2022-11-24T20:16:45.541Z,1.20
2022-11-24T20:19:15.643Z,1.05
2022-11-24T20:21:47.902Z,1.60
2022-11-24T20:24:17.822Z,1.63
2022-11-24T20:26:58.143Z,1.25
2022-11-24T20:29:25.888Z,2.42
2022-11-24T20:31:56.067Z,1.55
2022-11-24T20:34:24.004Z,2.00
2022-11-24T20:36:53.085Z,1.42
2022-11-24T20:39:27.756Z,2.30
2022-11-24T20:41:56.238Z,1.40
2022-11-24T20:44:26.342Z,1.85
2022-11-24T20:46:57.029Z,1.33
2022-11-24T20:49:24.046Z,1.80
2022-11-24T20:51:54.496Z,1.83
2022-11-24T20:54:22.241Z,1.65
2022-11-24T20:56:49.753Z,1.92
2022-11-24T20:59:24.116Z,1.38
2022-11-24T21:01:54.372Z,1.25
2022-11-24T21:04:25.572Z,1.38
2022-11-24T21:06:52.711Z,1.60
2022-11-24T21:09:19.783Z,1.50
2022-11-24T21:11:47.192Z,1.30
2022-11-24T21:14:14.484Z,1.45
2022-11-24T21:16:43.170Z,1.73
2022-11-24T21:19:17.069Z,0.93
2022-11-24T21:21:44.450Z,1.92
2022-11-24T21:24:17.337Z,1.20
2022-11-24T21:26:47.807Z,1.45
2022-11-24T21:29:19.150Z,1.45
2022-11-24T21:31:46.220Z,1.15
2022-11-24T21:34:18.986Z,1.35
2022-11-24T21:36:46.706Z,1.30
2022-11-24T21:39:15.275Z,1.05
2022-11-24T21:41:43.134Z,1.50
2022-11-24T21:44:15.065Z,2.25
2022-11-24T21:46:48.314Z,1.30
2022-11-24T21:49:19.484Z,1.45
2022-11-24T21:51:46.402Z,1.25
2022-11-24T21:54:13.307Z,1.98
2022-11-24T21:56:40.260Z,1.20
2022-11-24T21:59:07.256Z,1.60
2022-11-24T22:01:34.261Z,1.27
2022-11-24T22:04:01.324Z,1.60
2022-11-24T22:06:28.259Z,1.90
2022-11-24T22:08:55.530Z,1.88
2022-11-24T22:11:25.603Z,1.70
2022-11-24T22:13:53.291Z,1.38
2022-11-24T22:16:24.943Z,1.13
2022-11-24T22:18:52.253Z,1.58
2022-11-24T22:21:24.181Z,1.45
2022-11-24T22:23:52.762Z,1.17
2022-11-24T22:26:22.387Z,1.95
2022-11-24T22:28:50.290Z,1.88
2022-11-24T22:31:30.393Z,1.73
2022-11-24T22:33:59.188Z,1.05
2022-11-24T22:36:30.121Z,1.10
2022-11-24T22:39:03.140Z,1.10
2022-11-24T22:41:33.210Z,1.63
2022-11-24T22:44:00.230Z,1.10
2022-11-24T22:46:30.513Z,1.20
2022-11-24T22:49:01.154Z,0.98
2022-11-24T22:51:34.571Z,1.33
2022-11-24T22:54:04.230Z,1.13
2022-11-24T22:56:32.634Z,1.25
2022-11-24T22:59:04.690Z,0.70
2022-11-24T23:01:33.678Z,1.58
2022-11-24T23:04:01.229Z,0.75
2022-11-24T23:06:31.304Z,2.08
2022-11-24T23:09:00.858Z,1.30
2022-11-24T23:11:41.602Z,0.90
2022-11-24T23:14:15.810Z,1.65
2022-11-24T23:16:43.270Z,1.23
2022-11-24T23:19:10.507Z,1.40
2022-11-24T23:21:38.966Z,1.27
2022-11-24T23:24:07.999Z,1.15
2022-11-24T23:26:39.854Z,1.65
2022-11-24T23:29:08.069Z,1.35
2022-11-24T23:31:35.108Z,1.52
2022-11-24T23:34:03.819Z,1.08
2022-11-24T23:36:32.500Z,1.40
2022-11-24T23:39:13.310Z,1.48
2022-11-24T23:41:40.738Z,1.23
2022-11-24T23:44:08.273Z,1.38
2022-11-24T23:46:37.902Z,1.38
2022-11-24T23:49:04.791Z,1.08
2022-11-24T23:51:33.697Z,1.30
2022-11-24T23:54:01.233Z,1.20
2022-11-24T23:56:32.773Z,1.00
2022-11-24T23:59:02.395Z,1.05
